EHRDEKBI

Guest
Details From EHRD - Rotterdam The Hague
To EKBI - Billund
Flight Number -
Tags generated
Created
Modified
Stats Distance 285 nm / 528 km
Max Altitude 35,000 ft / 10,668 m
Waypoints 7
Social Downloads 1
Likes 0
Share VATSIM

Download

Looking for another format? Having issues loading an existing format? Contact us
Advertisement - Login to hide

Notes

Basic altitude profile: - Ascent Rate: 2500ft/min - Ascent Speed: 250kts - Cruise Altitude: 35000ft - Cruise Speed: 420kts - Descent Rate: 1500ft/min - Descent Speed: 250kts Options: - Use NATs: yes - Use PACOTS: yes - Use low airways: yes - Use high airways: yes

Route

EHRD GRONY UR12 BEDUM UN873 WELGO EKBI

ID Type Via Altitude Latitude Longitude Leg Dist Tot Dist Heading (true) Name
O EHRD APT - 0 ft / 0 m 51.95747˚ 4.44166˚ - 0 nm - Rotterdam The Hague
GRONY FIX - 31,300 ft / 9,540 m 53.10547˚ 6.05497˚ 90 nm 90 nm 40° / 41° -
BEDUM FIX UR12 (AWY-HI) 35,000 ft / 10,668 m 53.34817˚ 6.58887˚ 24 nm 114 nm 53° / 53° -
LABIL FIX UN873 (AWY-HI) 33,800 ft / 10,302 m 53.49583˚ 6.81648˚ 12 nm 126 nm 42° / 43° -
JUIST FIX UN873 (AWY-HI) 31,600 ft / 9,632 m 53.56278˚ 6.92000˚ 5 nm 132 nm 43° / 43° -
WELGO FIX UN873 (AWY-HI) 25,000 ft / 7,620 m 54.29833˚ 7.41583˚ 47 nm 179 nm 21° / 22° -
O EKBI APT - 0 ft / 0 m 55.73618˚ 9.15206˚ 105 nm 284 nm 34° / 35° Billund

Altitude Profile

Advertisement - Login to hide

Weather


0- 5 10 15 20 25 30 35+ Temperature / ° C

Clouds and Precipitation
Forecast for 2018-05-25 18:00 UTC. Updated 4 hours ago

Ground ~20,000 ft ~40,000 ft Winds

EHRD

Details ICAO EHRD (RTM)
Name Rotterdam The Hague
Region Netherlands
Timezone Europe/Amsterdam (UTC+2.0)
Stats Elevation -15 ft / -5 m (AMSL)
Location 51.957468° 4.441662°
Runways 1
Magnetic Variation 1.111° E

METAR

EHRD 252055Z AUTO 33002KT 4000 BR NSC 15/14 Q1018 BECMG 2500

Decode

TAF

TAF EHRD 251720Z 2518/2624 33005KT 5000 BR SCT040 BECMG 2518/2521 2000 BKN003 PROB30 2520/2522 0800 FG VV001 BECMG 2521/2524 06006KT 6000 NSW NSC BECMG 2604/2607 CAVOK BECMG 2607/2610 09011KT SCT030 BECMG 2618/2621 06008KT

Decode

Departure Runways

ID Width Length Bearing (true) Bearing (mag) Surface Threshold Offset Overrun Length
06 148 ft / 45 m 7,201 ft / 2,195 m 56.93° 55.82° Asphalt 656 ft / 200 m 0 ft / 0 m
24 148 ft / 45 m 7,201 ft / 2,195 m 236.95° 235.84° Asphalt 656 ft / 200 m 0 ft / 0 m

EKBI

Details ICAO EKBI (BLL)
Name Billund
Region Denmark / Faroe Islands
Timezone Europe/Copenhagen (UTC+2.0)
Stats Elevation 247 ft / 75 m (AMSL)
Location 55.736183° 9.152056°
Runways 2
Magnetic Variation 2.589° E

METAR

EKBI 252120Z AUTO 08002KT 9999NDV NCD 12/08 Q1025

Decode

TAF

TAF EKBI 251114Z 2512/2612 08012KT CAVOK= TAF EKAH 251114Z 2512/2612 09008KT CAVOK

Decode

Destination Runways

ID Width Length Bearing (true) Bearing (mag) Surface Threshold Offset Overrun Length
09 148 ft / 45 m 9,165 ft / 2,794 m 86.83° 84.24° Asphalt 351 ft / 107 m 0 ft / 0 m
10 98 ft / 30 m 2,017 ft / 615 m 93.89° 91.30° Grass 0 ft / 0 m 0 ft / 0 m
27 148 ft / 45 m 9,165 ft / 2,794 m 266.87° 264.28° Asphalt 351 ft / 107 m 0 ft / 0 m
28 98 ft / 30 m 2,017 ft / 615 m 273.89° 271.30° Grass 0 ft / 0 m 0 ft / 0 m

Approach Navaids

Runway Type Ident Frequency Range Bearing (true) Bearing (mag) Slope Elevation
09 Localiser BIL 111.70 MHz 18 nm / 33 km 86.87° 84.28° - 247 ft / 75 m (AMSL)
09 Glidescope BIL 111.70 MHz 10 nm / 19 km 86.85° 84.26° 3.00° 247 ft / 75 m (AMSL)
27 Localiser LEL 110.70 MHz 18 nm / 33 km 266.83° 264.24° - 247 ft / 75 m (AMSL)
27 Glidescope LEL 110.70 MHz 10 nm / 19 km 266.85° 264.26° 3.00° 247 ft / 75 m (AMSL)
27 DME LEL 110.70 MHz 18 nm / 33 km - - - 246 ft / 75 m (AMSL)

Popular Alternatives